Time;durP1;ratioP1;P1;durP2;ratioP2;P2;SDS_P1;SDS_P2;PMS_P1;PMS_P2;Temp;Humidity;BMP_temperature;BMP_pressure;BME280_temperature;BME280_humidity;BME280_pressure;Samples;Min_cycle;Max_cycle;Signal;HPM_P1;HPM_P2
2023/10/05 00:01:24;;;;;;;5.37;2.17;;;;;;;-145.69;66.44;52196.84;5041574;28;20224;-80
2023/10/05 00:03:51;;;;;;;5.70;2.43;;;;;;;-145.69;67.16;52216.66;5042818;28;20249;-80
2023/10/05 00:06:24;;;;;;;4.37;2.13;;;;;;;-145.69;66.98;52212.69;5041999;28;20200;-81
2023/10/05 00:08:52;;;;;;;4.03;2.30;;;;;;;-145.69;66.87;52218.63;5041002;28;20216;-81
2023/10/05 00:11:23;;;;;;;4.83;2.00;;;;;;;-145.69;67.08;52214.66;5037702;28;20208;-80
2023/10/05 00:13:52;;;;;;;4.23;1.80;;;;;;;-145.69;67.03;52216.66;5038721;28;20207;-81
2023/10/05 00:16:21;;;;;;;4.60;2.07;;;;;;;-145.69;66.71;52206.75;5039271;28;20204;-81
2023/10/05 00:18:49;;;;;;;10.20;2.27;;;;;;;-145.69;66.86;52198.81;5040584;28;20208;-81
2023/10/05 00:21:18;;;;;;;5.20;2.50;;;;;;;-145.69;67.32;52218.63;5101195;27;20242;-80
2023/10/05 00:23:49;;;;;;;8.60;2.13;;;;;;;-145.69;66.03;52222.59;5040503;28;20592;-81
2023/10/05 00:26:20;;;;;;;6.40;2.00;;;;;;;-145.69;65.32;52200.81;5041299;28;20204;-81
2023/10/05 00:29:00;;;;;;;4.97;1.87;;;;;;;-145.69;64.51;52206.75;5040806;28;20296;-81
2023/10/05 00:31:29;;;;;;;4.83;2.30;;;;;;;-145.69;66.11;52190.91;5040848;28;20200;-80
2023/10/05 00:33:57;;;;;;;4.27;2.40;;;;;;;-145.69;66.06;52214.66;5041526;28;20563;-80
2023/10/05 00:36:25;;;;;;;3.80;1.93;;;;;;;-145.69;65.80;52200.81;5041571;28;20235;-80
2023/10/05 00:38:51;;;;;;;4.03;2.15;;;;;;;-145.69;67.02;52248.34;5040849;28;20441;-81
2023/10/05 00:41:22;;;;;;;4.70;1.90;;;;;;;-145.69;66.11;52218.63;5041313;28;20228;-80
2023/10/05 00:43:49;;;;;;;4.53;1.90;;;;;;;-145.69;65.98;52230.50;5042315;28;20204;-80
2023/10/05 00:46:15;;;;;;;3.60;2.00;;;;;;;-145.69;66.60;52214.66;5043000;28;20223;-80
2023/10/05 00:49:15;;;;;;;5.57;1.87;;;;;;;-145.69;66.90;52175.06;5042861;28;20236;-80
2023/10/05 00:51:42;;;;;;;4.80;2.07;;;;;;;-145.69;66.80;52210.72;5040565;28;20197;-80
2023/10/05 00:54:10;;;;;;;4.43;1.97;;;;;;;-145.69;66.63;52206.75;5043259;28;20261;-80
2023/10/05 00:56:41;;;;;;;6.47;1.90;;;;;;;-145.69;67.18;52194.88;5042839;28;20204;-80
2023/10/05 00:59:11;;;;;;;7.90;2.13;;;;;;;-145.69;67.86;52206.75;5045309;28;20246;-81
2023/10/05 01:01:58;;;;;;;4.43;2.03;;;;;;;-145.69;67.34;52222.59;5044806;28;20255;-81
2023/10/05 01:04:29;;;;;;;4.93;2.27;;;;;;;-145.69;68.48;52202.78;5044555;28;20204;-80
2023/10/05 01:07:06;;;;;;;7.17;2.20;;;;;;;-145.69;68.60;52222.59;5043567;28;20210;-81
2023/10/05 01:09:55;;;;;;;8.07;2.10;;;;;;;-145.69;67.98;52216.66;5045720;28;20200;-80
2023/10/05 01:12:29;;;;;;;3.67;1.70;;;;;;;-145.69;69.09;52214.66;5043420;28;20659;-80
2023/10/05 01:14:59;;;;;;;6.90;1.80;;;;;;;-145.69;67.50;52206.75;5041366;28;20234;-81
2023/10/05 01:17:27;;;;;;;9.17;2.00;;;;;;;-145.69;67.43;52218.63;5044088;28;20200;-81
2023/10/05 01:19:59;;;;;;;4.97;2.20;;;;;;;-145.69;68.02;52181.00;5046764;28;20229;-81
2023/10/05 01:22:32;;;;;;;6.47;1.80;;;;;;;-145.69;68.27;52226.53;5045058;28;20678;-80
2023/10/05 01:25:02;;;;;;;8.13;2.10;;;;;;;-145.69;70.21;52202.78;5044819;28;20204;-81
2023/10/05 01:27:29;;;;;;;7.83;2.30;;;;;;;-145.69;69.91;52218.63;5046298;28;20220;-80
2023/10/05 01:29:56;;;;;;;10.10;2.00;;;;;;;-145.69;70.06;52206.75;5044257;28;20211;-80
2023/10/05 01:32:23;;;;;;;5.10;1.93;;;;;;;-145.69;69.94;52220.59;5045199;28;20224;-80
2023/10/05 01:34:50;;;;;;;6.67;1.93;;;;;;;-145.69;70.85;52214.66;5044311;28;20231;-80
2023/10/05 01:37:18;;;;;;;6.03;2.53;;;;;;;-145.69;69.69;52234.47;5044550;28;20196;-80
2023/10/05 01:39:45;;;;;;;10.23;2.00;;;;;;;-145.69;70.03;52214.66;5041898;28;20258;-80
2023/10/05 01:42:13;;;;;;;10.47;2.10;;;;;;;-145.69;69.92;52198.81;5042928;28;20234;-80
2023/10/05 01:44:41;;;;;;;4.53;2.10;;;;;;;-145.69;69.69;52214.66;5040417;28;20222;-81
2023/10/05 01:47:07;;;;;;;3.97;1.90;;;;;;;-145.69;69.24;52214.66;5063213;27;20192;-80
2023/10/05 01:49:34;;;;;;;4.23;2.30;;;;;;;-145.69;68.71;52238.44;5145810;27;20287;-81
2023/10/05 01:52:00;;;;;;;7.73;1.97;;;;;;;-145.69;69.14;52206.75;5096709;27;20219;-81
2023/10/05 01:54:28;;;;;;;3.63;1.70;;;;;;;-145.69;68.84;52244.38;5041345;28;20206;-80
2023/10/05 01:56:56;;;;;;;6.93;1.57;;;;;;;-145.69;68.59;52202.78;5041889;28;20208;-80
2023/10/05 01:59:24;;;;;;;5.97;1.87;;;;;;;-145.69;69.04;52222.59;5117972;27;20200;-80
2023/10/05 02:01:53;;;;;;;7.17;2.10;;;;;;;-145.69;68.82;52242.38;5143411;27;20307;-81
2023/10/05 02:04:22;;;;;;;4.60;1.93;;;;;;;-145.69;68.55;52218.63;5142416;27;20201;-80
2023/10/05 02:06:49;;;;;;;3.17;1.97;;;;;;;-145.69;69.17;52204.75;5094964;27;20196;-81
2023/10/05 02:09:19;;;;;;;7.63;2.00;;;;;;;-145.69;69.02;52218.63;5042030;28;20203;-80
2023/10/05 02:11:47;;;;;;;8.37;2.17;;;;;;;-145.69;69.49;52212.69;5042769;28;20236;-80
2023/10/05 02:14:14;;;;;;;8.37;1.70;;;;;;;-145.69;70.00;52242.38;5039533;28;20249;-80
2023/10/05 02:16:42;;;;;;;4.73;2.13;;;;;;;-145.69;69.36;52226.53;5042415;28;20624;-80
2023/10/05 02:19:09;;;;;;;5.23;1.83;;;;;;;-145.69;69.56;52194.88;5050071;27;20283;-80
2023/10/05 02:21:37;;;;;;;3.80;2.00;;;;;;;-145.69;68.91;52198.81;5045995;28;20224;-80
2023/10/05 02:24:10;;;;;;;7.63;2.10;;;;;;;-145.69;69.74;52206.75;5044610;28;20208;-81
2023/10/05 02:26:37;;;;;;;6.90;2.00;;;;;;;-145.69;69.88;52254.28;5043862;28;20196;-81
2023/10/05 02:29:13;;;;;;;3.87;2.03;;;;;;;-145.69;69.39;52262.19;5044216;28;20204;-81
2023/10/05 02:31:54;;;;;;;5.10;1.67;;;;;;;-145.69;69.40;52246.34;5044238;28;20204;-81
2023/10/05 02:34:21;;;;;;;4.80;1.90;;;;;;;-145.69;69.04;52238.44;5043104;28;20200;-81
2023/10/05 02:36:48;;;;;;;6.10;2.10;;;;;;;-145.69;68.84;52220.59;5042809;28;20586;-81
2023/10/05 02:39:15;;;;;;;4.27;1.70;;;;;;;-145.69;69.40;52218.63;5043699;28;20265;-81
2023/10/05 02:41:43;;;;;;;4.30;1.83;;;;;;;-145.69;69.35;52214.66;5035543;28;20812;-81
2023/10/05 02:44:19;;;;;;;6.97;1.93;;;;;;;-145.69;69.85;52216.66;5033198;28;20576;-81
2023/10/05 02:46:47;;;;;;;7.03;1.90;;;;;;;-145.69;69.61;52210.72;5032606;28;20255;-81
2023/10/05 02:49:15;;;;;;;9.10;1.83;;;;;;;-145.69;69.33;52214.66;5038231;28;20220;-81
2023/10/05 02:51:43;;;;;;;5.33;1.90;;;;;;;-145.69;69.46;52216.66;5041005;28;20236;-81
2023/10/05 02:54:10;;;;;;;7.00;2.30;;;;;;;-145.69;69.70;52246.34;5041714;28;20287;-81
2023/10/05 02:56:40;;;;;;;6.10;2.50;;;;;;;-145.69;69.15;52212.69;5039317;28;20200;-81
2023/10/05 02:59:09;;;;;;;5.17;1.70;;;;;;;-145.69;69.31;52184.97;5036998;28;20650;-81
2023/10/05 03:01:37;;;;;;;5.27;1.80;;;;;;;-145.69;69.42;52246.34;5038025;28;20230;-81
2023/10/05 03:04:16;;;;;;;3.63;1.90;;;;;;;-145.69;71.16;52190.91;5039448;28;20295;-81
2023/10/05 03:06:43;;;;;;;6.40;2.40;;;;;;;-145.69;69.94;52214.66;5041687;28;20203;-81
2023/10/05 03:09:10;;;;;;;10.60;2.10;;;;;;;-145.69;70.78;52210.72;5039661;28;20555;-81
2023/10/05 03:11:38;;;;;;;4.63;2.03;;;;;;;-145.69;70.40;52242.38;5042308;28;20211;-81
2023/10/05 03:14:04;;;;;;;4.83;2.20;;;;;;;-145.69;70.47;52218.63;5042019;28;20547;-80
2023/10/05 03:16:31;;;;;;;6.90;2.27;;;;;;;-145.69;70.38;52212.69;5042657;28;20199;-81
2023/10/05 03:19:00;;;;;;;5.73;2.23;;;;;;;-145.69;70.32;52198.81;5039349;28;20228;-81
2023/10/05 03:21:28;;;;;;;8.50;2.20;;;;;;;-145.69;70.83;52210.72;5036525;28;20224;-81
2023/10/05 03:23:54;;;;;;;5.30;2.10;;;;;;;-145.69;70.73;52214.66;5040022;28;20249;-81
2023/10/05 03:26:21;;;;;;;4.13;1.90;;;;;;;-145.69;70.53;52212.69;5043577;28;20209;-81
2023/10/05 03:28:48;;;;;;;4.33;2.43;;;;;;;-145.69;69.81;52186.94;5044743;28;20199;-81
2023/10/05 03:31:23;;;;;;;8.13;2.30;;;;;;;-145.69;70.05;52242.38;5043296;28;20204;-81
2023/10/05 03:33:52;;;;;;;8.00;1.90;;;;;;;-145.69;69.68;52214.66;5043565;28;20206;-81
2023/10/05 03:36:17;;;;;;;7.53;1.83;;;;;;;-145.69;70.37;52198.81;5044086;28;20220;-81
2023/10/05 03:38:55;;;;;;;8.00;2.07;;;;;;;-145.69;69.53;52216.66;5043626;28;20595;-81
2023/10/05 03:41:25;;;;;;;6.97;2.20;;;;;;;-145.69;70.14;52244.38;5047491;27;20231;-81
2023/10/05 03:43:52;;;;;;;5.47;1.90;;;;;;;-145.69;69.75;52226.53;5037704;28;20200;-81
2023/10/05 03:46:19;;;;;;;7.27;1.50;;;;;;;-145.69;69.79;52214.66;5034542;28;20659;-81
2023/10/05 03:48:46;;;;;;;7.77;2.23;;;;;;;-145.69;70.16;52192.88;5040407;28;20249;-81
2023/10/05 03:51:16;;;;;;;6.97;2.43;;;;;;;-145.69;70.13;52214.66;5041174;28;20738;-81
2023/10/05 03:53:51;;;;;;;8.13;2.40;;;;;;;-145.69;69.78;52232.50;5100208;27;20197;-80
2023/10/05 03:56:19;;;;;;;9.60;2.30;;;;;;;-145.69;69.99;52202.78;5146171;27;20196;-81
2023/10/05 03:58:47;;;;;;;13.90;2.33;;;;;;;-145.69;70.20;52196.84;5144979;27;20227;-81
2023/10/05 04:01:13;;;;;;;6.83;1.80;;;;;;;-145.69;69.74;52246.34;5146502;27;20292;-81
2023/10/05 04:03:40;;;;;;;7.60;1.90;;;;;;;-145.69;70.08;52246.34;5142726;27;20197;-81
2023/10/05 04:06:17;;;;;;;6.63;2.03;;;;;;;-145.69;69.79;52202.78;5142340;27;20655;-80
2023/10/05 04:08:49;;;;;;;7.90;2.43;;;;;;;-145.69;69.61;52214.66;5041074;28;20204;-81
2023/10/05 04:11:18;;;;;;;4.33;1.70;;;;;;;-145.69;69.32;52194.88;5039552;28;20208;-81
2023/10/05 04:13:46;;;;;;;6.17;2.10;;;;;;;-145.69;69.43;52202.78;5041415;28;20210;-81
2023/10/05 04:16:18;;;;;;;4.37;1.93;;;;;;;-145.69;69.29;52212.69;5038129;28;20679;-81
2023/10/05 04:18:49;;;;;;;4.30;2.20;;;;;;;-145.69;69.79;52190.91;5044705;27;20532;-81
2023/10/05 04:21:18;;;;;;;6.33;1.63;;;;;;;-145.69;69.52;52210.72;5036069;28;20200;-81
2023/10/05 04:23:46;;;;;;;4.50;1.80;;;;;;;-145.69;69.62;52214.66;5118518;27;20655;-81
2023/10/05 04:26:14;;;;;;;6.47;1.77;;;;;;;-145.69;70.01;52218.63;5144698;27;20292;-81
2023/10/05 04:28:51;;;;;;;5.23;2.10;;;;;;;-145.69;70.18;52238.44;5144198;27;20201;-81
2023/10/05 04:31:22;;;;;;;4.43;2.00;;;;;;;-145.69;70.43;52165.16;5144355;27;20211;-81
2023/10/05 04:33:49;;;;;;;3.90;1.70;;;;;;;-145.69;70.26;52226.53;5145257;27;20203;-80
2023/10/05 04:36:16;;;;;;;5.10;1.90;;;;;;;-145.69;70.30;52266.16;5142381;27;20646;-80
2023/10/05 04:38:43;;;;;;;5.73;2.07;;;;;;;-145.69;70.61;52206.75;5144356;27;20575;-80
2023/10/05 04:41:12;;;;;;;3.83;1.53;;;;;;;-145.69;70.44;52204.75;5142745;27;20235;-80
2023/10/05 04:43:40;;;;;;;5.03;2.20;;;;;;;-145.69;71.03;52194.88;5101356;27;20210;-80
2023/10/05 04:46:08;;;;;;;3.73;2.00;;;;;;;-145.69;70.76;52202.78;5035747;28;20207;-80
2023/10/05 04:48:35;;;;;;;3.93;1.90;;;;;;;-145.69;70.16;52184.97;5036323;28;20231;-81
2023/10/05 04:51:05;;;;;;;3.70;1.87;;;;;;;-145.69;70.11;52238.44;5035358;28;20204;-81
2023/10/05 04:53:32;;;;;;;3.50;1.90;;;;;;;-145.69;69.76;52210.72;5033983;28;20200;-80
2023/10/05 04:56:12;;;;;;;5.93;2.30;;;;;;;-145.69;70.08;52184.97;5035209;28;20616;-80
2023/10/05 04:59:18;;;;;;;6.90;2.03;;;;;;;-145.69;70.29;52238.44;5036668;28;20291;-80
2023/10/05 05:01:56;;;;;;;3.47;1.53;;;;;;;-145.69;69.25;52204.75;5037925;28;20245;-80
2023/10/05 05:04:40;;;;;;;5.00;1.50;;;;;;;-145.69;69.57;52192.88;5032450;28;20207;-81
2023/10/05 05:07:09;;;;;;;4.80;1.80;;;;;;;-145.69;69.60;52226.53;5030265;28;20207;-80
2023/10/05 05:09:38;;;;;;;3.40;1.63;;;;;;;-145.69;69.49;52202.78;5030600;28;20589;-80
2023/10/05 05:12:08;;;;;;;3.80;1.90;;;;;;;-145.69;69.29;52206.75;5030885;28;20196;-80
2023/10/05 05:14:41;;;;;;;5.30;1.77;;;;;;;-145.69;69.39;52224.56;5030508;28;20206;-80
2023/10/05 05:17:10;;;;;;;4.20;1.60;;;;;;;-145.69;69.47;52226.53;5031054;28;20200;-80
2023/10/05 05:19:38;;;;;;;2.90;1.50;;;;;;;-145.69;68.93;52182.97;5030919;28;20621;-81
2023/10/05 05:22:05;;;;;;;2.87;1.87;;;;;;;-145.69;69.24;52214.66;5030936;28;20216;-81
2023/10/05 05:24:32;;;;;;;4.80;2.00;;;;;;;-145.69;70.25;52216.66;5030867;28;20249;-81
2023/10/05 05:27:00;;;;;;;7.67;2.03;;;;;;;-145.69;70.33;52222.59;5030880;28;20291;-80
2023/10/05 05:29:29;;;;;;;6.63;2.03;;;;;;;-145.69;70.23;52186.94;5030931;28;20205;-80
2023/10/05 05:31:57;;;;;;;10.57;1.83;;;;;;;-145.69;70.08;52214.66;5031415;28;20215;-80
2023/10/05 05:34:25;;;;;;;7.53;1.80;;;;;;;-145.69;69.96;52226.53;5031324;28;20211;-80
2023/10/05 05:36:53;;;;;;;4.47;1.73;;;;;;;-145.69;70.17;52210.72;5032461;28;20188;-80
2023/10/05 05:39:20;;;;;;;4.47;1.80;;;;;;;-145.69;70.21;52228.53;5033985;28;20203;-80
2023/10/05 05:41:55;;;;;;;6.63;1.70;;;;;;;-145.69;70.28;52246.34;5104662;27;20602;-80
2023/10/05 05:44:22;;;;;;;4.27;1.97;;;;;;;-145.69;69.59;52220.59;5069670;27;20200;-80
2023/10/05 05:46:51;;;;;;;3.77;1.90;;;;;;;-145.69;69.89;52216.66;5030481;28;20601;-81
2023/10/05 05:49:21;;;;;;;3.53;1.85;;;;;;;-145.69;70.13;52214.66;5030498;28;20386;-80
2023/10/05 05:51:48;;;;;;;3.70;1.70;;;;;;;-145.69;70.76;52202.78;5029864;28;20298;-82
2023/10/05 05:54:18;;;;;;;5.03;2.20;;;;;;;-145.69;70.41;52232.50;5030103;28;20243;-81
2023/10/05 05:56:45;;;;;;;6.70;2.20;;;;;;;-145.69;70.21;52206.75;5030217;28;20230;-80
2023/10/05 05:59:13;;;;;;;3.83;2.00;;;;;;;-145.69;69.94;52188.91;5049882;27;20200;-81
2023/10/05 06:01:39;;;;;;;7.17;1.97;;;;;;;-145.69;70.03;52200.81;5033798;28;20555;-80
2023/10/05 06:04:06;;;;;;;4.43;2.10;;;;;;;-145.69;70.25;52202.78;5034138;28;20665;-80
2023/10/05 06:06:35;;;;;;;4.07;1.90;;;;;;;-145.69;70.43;52186.94;5030842;28;20208;-80
2023/10/05 06:09:07;;;;;;;8.37;1.90;;;;;;;-145.69;70.71;52175.06;5012930;28;20709;-80
2023/10/05 06:11:34;;;;;;;7.43;2.00;;;;;;;-145.69;70.13;52218.63;5019215;28;20200;-81
2023/10/05 06:14:01;;;;;;;3.83;1.90;;;;;;;-145.69;69.81;52194.88;5030729;28;20204;-81
2023/10/05 06:16:28;;;;;;;3.97;2.00;;;;;;;-145.69;69.92;52240.41;5030576;28;20208;-81
2023/10/05 06:18:55;;;;;;;6.17;1.97;;;;;;;-145.69;69.96;52206.75;5030772;28;20203;-80
2023/10/05 06:21:22;;;;;;;6.00;1.80;;;;;;;-145.69;70.59;52198.81;5030473;28;20279;-80
2023/10/05 06:23:50;;;;;;;3.43;1.70;;;;;;;-145.69;70.38;52210.72;5044732;28;20235;-80
2023/10/05 06:26:17;;;;;;;4.67;2.00;;;;;;;-145.69;70.06;52202.78;5030724;28;20207;-80
2023/10/05 06:28:44;;;;;;;5.47;2.20;;;;;;;-145.69;70.52;52179.03;5031188;28;20214;-80
2023/10/05 06:31:12;;;;;;;6.10;2.30;;;;;;;-145.69;70.33;52181.00;5031955;28;20211;-80
2023/10/05 06:33:42;;;;;;;8.23;2.27;;;;;;;-145.69;70.18;52182.97;5032133;28;20200;-80
2023/10/05 06:36:08;;;;;;;4.40;1.90;;;;;;;-145.69;70.28;52194.88;5031762;28;20267;-80
2023/10/05 06:38:35;;;;;;;4.53;1.97;;;;;;;-145.69;69.99;52194.88;5029932;28;20192;-80
2023/10/05 06:41:04;;;;;;;3.60;1.90;;;;;;;-145.69;70.34;52186.94;5032218;28;20612;-81
2023/10/05 06:43:35;;;;;;;7.70;2.07;;;;;;;-145.69;70.09;52179.03;5030619;28;20223;-80
2023/10/05 06:46:09;;;;;;;8.57;2.10;;;;;;;-145.69;70.16;52190.91;5031194;28;20204;-80
2023/10/05 06:48:36;;;;;;;7.23;1.90;;;;;;;-145.69;69.88;52186.94;5030636;28;20283;-80
2023/10/05 06:51:02;;;;;;;5.10;1.63;;;;;;;-145.69;70.40;52210.72;5030673;28;20559;-81
2023/10/05 06:53:29;;;;;;;3.20;1.87;;;;;;;-145.69;70.15;52184.97;5031662;28;20619;-80
2023/10/05 06:55:56;;;;;;;5.50;2.00;;;;;;;-145.69;70.52;52214.66;5031178;28;20208;-80
2023/10/05 06:58:24;;;;;;;3.93;2.20;;;;;;;-145.69;69.69;52153.28;5031619;28;20196;-80
2023/10/05 07:00:52;;;;;;;4.50;2.20;;;;;;;-145.69;70.28;52175.06;5030631;28;20204;-80
2023/10/05 07:03:20;;;;;;;6.63;1.93;;;;;;;-145.69;70.76;52153.28;5031048;28;20243;-81
2023/10/05 07:05:47;;;;;;;5.97;2.00;;;;;;;-145.69;70.37;52186.94;5034896;28;20261;-81
2023/10/05 07:08:14;;;;;;;6.53;2.10;;;;;;;-145.69;70.34;52159.22;5034167;28;20655;-81
2023/10/05 07:10:47;;;;;;;8.00;2.20;;;;;;;-145.69;70.28;52119.63;5033549;28;20207;-80
2023/10/05 07:13:19;;;;;;;4.37;2.00;;;;;;;-145.69;70.34;52143.38;5032800;28;20236;-80
2023/10/05 07:15:46;;;;;;;4.00;1.80;;;;;;;-145.69;70.31;52131.50;5032919;28;20208;-80
2023/10/05 07:18:13;;;;;;;5.37;2.10;;;;;;;-145.69;70.51;52155.25;5033407;28;20204;-81
2023/10/05 07:20:41;;;;;;;2.88;1.80;;;;;;;-145.69;70.81;52159.22;5033501;28;20651;-81
2023/10/05 07:23:08;;;;;;;3.45;1.80;;;;;;;-145.69;70.02;52171.09;5033321;28;20236;-81
2023/10/05 07:25:36;;;;;;;4.97;1.88;;;;;;;-145.69;70.03;52139.41;5033078;28;20204;-81
2023/10/05 07:28:03;;;;;;;3.63;1.60;;;;;;;-145.69;69.61;52169.13;5033573;28;20205;-81
2023/10/05 07:30:30;;;;;;;4.25;2.00;;;;;;;-145.69;69.74;52177.03;5033639;28;20574;-80
2023/10/05 07:32:59;;;;;;;5.28;2.05;;;;;;;-145.69;69.88;52163.19;5033250;28;20287;-81
2023/10/05 07:35:25;;;;;;;3.83;1.60;;;;;;;-145.69;69.64;52151.28;5035425;28;20232;-81
2023/10/05 07:37:52;;;;;;;4.13;1.80;;;;;;;-145.69;68.99;52151.28;5033767;28;20566;-81
2023/10/05 07:40:18;;;;;;;3.55;1.42;;;;;;;-145.69;69.07;52129.50;5041832;27;20287;-81
2023/10/05 07:42:45;;;;;;;6.82;2.20;;;;;;;-145.69;68.79;52125.56;5036512;28;20725;-82
2023/10/05 07:45:13;;;;;;;2.50;1.55;;;;;;;-145.69;67.82;52119.63;5046682;28;20197;-80
2023/10/05 07:47:43;;;;;;;3.80;1.60;;;;;;;-145.69;67.38;52153.28;5041623;28;20650;-81
2023/10/05 07:50:11;;;;;;;8.48;1.90;;;;;;;-145.69;66.73;52119.63;5041026;28;20200;-80
2023/10/05 07:52:38;;;;;;;2.25;1.38;;;;;;;-145.69;67.65;52119.63;5041896;28;20208;-80
2023/10/05 07:55:07;;;;;;;2.67;1.42;;;;;;;-145.69;67.63;52131.50;5043167;28;20208;-80
2023/10/05 07:57:33;;;;;;;4.00;1.67;;;;;;;-145.69;66.23;52123.56;5044192;28;20204;-80
2023/10/05 08:00:00;;;;;;;5.30;1.83;;;;;;;-145.69;65.04;52131.50;5045828;28;20223;-81
2023/10/05 08:02:27;;;;;;;5.30;1.80;;;;;;;-145.69;64.85;52127.53;5052912;27;20302;-80
2023/10/05 08:04:54;;;;;;;4.57;1.73;;;;;;;-145.69;62.67;52095.84;5040199;28;20295;-80
2023/10/05 08:07:24;;;;;;;5.57;2.03;;;;;;;-145.69;61.41;52082.00;5041670;28;20211;-80
2023/10/05 08:09:51;;;;;;;3.22;1.63;;;;;;;-145.69;60.70;52083.97;5044090;28;20200;-81
2023/10/05 08:12:17;;;;;;;5.50;2.15;;;;;;;-145.69;59.85;52093.88;5042137;28;20196;-80
2023/10/05 08:14:47;;;;;;;3.60;1.92;;;;;;;-145.69;59.14;52099.81;5042544;28;20663;-80
2023/10/05 08:17:13;;;;;;;4.53;1.40;;;;;;;-145.69;58.98;52097.84;5042271;28;20200;-80
2023/10/05 08:19:40;;;;;;;3.55;1.73;;;;;;;-145.69;56.36;52048.31;5041740;28;20203;-81
2023/10/05 08:22:06;;;;;;;4.72;1.50;;;;;;;-145.69;54.02;52068.13;5045421;28;20227;-81
2023/10/05 08:24:35;;;;;;;3.85;1.70;;;;;;;-145.69;50.82;52072.09;5041899;28;20310;-81
2023/10/05 08:27:02;;;;;;;4.13;1.55;;;;;;;-145.69;51.72;52072.09;5096298;27;20240;-81
2023/10/05 08:29:28;;;;;;;4.22;1.75;;;;;;;-145.69;51.22;52068.13;5142081;27;20295;-80
2023/10/05 08:31:58;;;;;;;6.55;1.73;;;;;;;-145.69;50.03;52091.88;5140250;27;20588;-80
2023/10/05 08:34:32;;;;;;;4.18;1.90;;;;;;;-145.69;47.58;52054.25;5075843;27;20200;-81
2023/10/05 08:36:59;;;;;;;3.78;1.65;;;;;;;-145.69;46.93;52087.94;5043046;28;20208;-80
2023/10/05 08:39:30;;;;;;;3.72;1.52;;;;;;;-145.69;45.28;52091.88;5043517;28;20727;-81
2023/10/05 08:42:03;;;;;;;2.60;1.30;;;;;;;-145.69;45.57;52048.31;5043819;27;20228;-80
2023/10/05 08:44:30;;;;;;;4.95;1.45;;;;;;;-145.69;45.82;52095.84;5039768;28;20228;-80
2023/10/05 08:46:58;;;;;;;4.63;1.52;;;;;;;-145.69;45.90;52056.25;5045563;28;20260;-80
2023/10/05 08:49:26;;;;;;;6.40;1.85;;;;;;;-145.69;45.95;52066.16;5032990;28;20227;-81
2023/10/05 08:51:56;;;;;;;5.25;1.63;;;;;;;-145.69;46.00;52048.31;5038091;28;20682;-81
2023/10/05 08:54:29;;;;;;;7.30;2.60;;;;;;;-145.69;46.32;52076.03;5038359;28;20200;-81
2023/10/05 08:56:57;;;;;;;5.18;1.83;;;;;;;-145.69;46.22;52080.00;5031121;28;20554;-78
2023/10/05 08:59:27;;;;;;;3.55;1.38;;;;;;;-145.69;45.71;52093.88;5030510;28;20264;-79
2023/10/05 09:01:55;;;;;;;5.70;1.77;;;;;;;-145.69;45.01;52074.06;5030155;28;20192;-79
2023/10/05 09:04:29;;;;;;;4.22;1.60;;;;;;;-145.69;45.03;52068.13;5030685;28;20232;-78
2023/10/05 09:06:56;;;;;;;4.82;1.45;;;;;;;-145.69;44.59;52060.22;5030439;28;20192;-77
2023/10/05 09:09:28;;;;;;;5.55;1.83;;;;;;;-145.69;43.99;52038.44;5030562;28;20200;-76
2023/10/05 09:11:56;;;;;;;4.70;1.67;;;;;;;-145.69;44.99;52072.09;5030690;28;20730;-76
2023/10/05 09:14:28;;;;;;;3.70;1.60;;;;;;;-145.69;44.65;52074.06;5030331;28;20204;-79
2023/10/05 09:17:07;;;;;;;3.88;1.33;;;;;;;-145.69;45.20;52076.03;5030623;28;20200;-78
2023/10/05 09:19:34;;;;;;;3.78;1.48;;;;;;;-145.69;45.62;52076.03;5030709;28;20204;-78
2023/10/05 09:22:12;;;;;;;3.58;1.75;;;;;;;-145.69;44.75;52056.25;5030485;28;20630;-78
2023/10/05 09:24:42;;;;;;;4.00;1.92;;;;;;;-145.69;44.30;52087.94;5030097;28;20223;-80
2023/10/05 09:27:12;;;;;;;7.32;2.03;;;;;;;-145.69;44.39;52062.19;5029888;28;20204;-79
2023/10/05 09:29:41;;;;;;;5.70;1.90;;;;;;;-145.69;44.89;52064.16;5030308;28;20261;-79
2023/10/05 09:32:22;;;;;;;4.57;1.70;;;;;;;-145.69;44.94;52064.16;5041725;27;20221;-79
2023/10/05 09:34:50;;;;;;;3.60;1.63;;;;;;;-145.69;45.06;52040.41;5133727;27;20232;-79
2023/10/05 09:37:18;;;;;;;5.45;1.70;;;;;;;-145.69;44.81;52052.28;5078555;27;20239;-79
2023/10/05 09:39:49;;;;;;;5.00;2.17;;;;;;;-145.69;45.45;52080.00;5052060;27;20199;-78
2023/10/05 09:42:17;;;;;;;8.70;2.55;;;;;;;-145.69;45.04;52056.25;5030264;28;20249;-79
2023/10/05 09:44:52;;;;;;;5.72;1.90;;;;;;;-145.69;45.11;52064.16;5029442;28;20246;-80
2023/10/05 09:47:25;;;;;;;3.95;1.92;;;;;;;-145.69;45.23;52068.13;5029958;28;20207;-80
2023/10/05 09:49:54;;;;;;;4.30;1.73;;;;;;;-145.69;45.35;52032.47;5029764;28;20204;-80
2023/10/05 09:52:23;;;;;;;5.90;2.20;;;;;;;-145.69;44.93;52068.13;5030333;28;20555;-81
2023/10/05 09:54:51;;;;;;;4.15;1.90;;;;;;;-145.69;44.71;52040.41;5028302;28;20552;-79
2023/10/05 09:57:20;;;;;;;5.15;2.20;;;;;;;-145.69;44.05;52020.59;5028119;28;20609;-80
2023/10/05 09:59:59;;;;;;;4.90;1.70;;;;;;;-145.69;43.73;52034.47;5028045;28;20196;-78
2023/10/05 10:02:33;;;;;;;5.10;1.83;;;;;;;-145.69;43.50;52046.34;5021194;28;20562;-79
2023/10/05 10:05:05;;;;;;;3.83;1.90;;;;;;;-145.69;42.77;52052.28;5028513;28;20233;-80
2023/10/05 10:07:34;;;;;;;5.25;1.90;;;;;;;-145.69;43.45;52034.47;5029176;28;20193;-79
2023/10/05 10:10:04;;;;;;;3.50;1.48;;;;;;;-145.69;43.58;52068.13;5029290;28;20200;-79
2023/10/05 10:12:37;;;;;;;4.93;1.65;;;;;;;-145.69;43.69;52020.59;5036830;28;20197;-79
2023/10/05 10:15:24;;;;;;;4.65;1.85;;;;;;;-145.69;42.84;52018.63;5029053;28;20208;-79
2023/10/05 10:17:53;;;;;;;5.43;2.03;;;;;;;-145.69;43.14;52028.53;5028635;28;20430;-79
2023/10/05 10:20:34;;;;;;;4.38;1.95;;;;;;;-145.69;42.48;52038.44;5114032;28;20197;-79
2023/10/05 10:23:08;;;;;;;6.93;2.13;;;;;;;-145.69;42.60;52032.47;5049141;27;20253;-79
2023/10/05 10:25:38;;;;;;;4.20;1.67;;;;;;;-145.69;42.76;52091.88;5028273;28;20196;-80
2023/10/05 10:28:35;;;;;;;9.13;1.80;;;;;;;-145.69;40.44;52056.25;5029484;28;20207;-79
2023/10/05 10:31:17;;;;;;;4.35;1.73;;;;;;;-145.69;40.85;52022.59;5029705;28;20635;-79
2023/10/05 10:33:50;;;;;;;4.45;1.70;;;;;;;-145.69;41.08;52030.50;5029598;28;20212;-80
2023/10/05 10:36:19;;;;;;;5.68;2.10;;;;;;;-145.69;42.02;52048.31;5029347;28;20220;-80
2023/10/05 10:38:50;;;;;;;5.70;2.03;;;;;;;-145.69;41.51;52036.44;5030897;28;20290;-79
2023/10/05 10:41:17;;;;;;;6.05;2.30;;;;;;;-145.69;40.90;52074.06;5033225;28;20197;-79
2023/10/05 10:43:50;;;;;;;4.45;2.10;;;;;;;-145.69;41.26;52072.09;5032716;28;20227;-79
2023/10/05 10:46:28;;;;;;;4.35;1.83;;;;;;;-145.69;40.57;52028.53;5031595;28;20196;-79
2023/10/05 10:48:57;;;;;;;7.57;2.13;;;;;;;-145.69;40.78;52024.56;5033229;28;20200;-79
2023/10/05 10:51:24;;;;;;;5.28;1.95;;;;;;;-145.69;41.25;52054.25;5032987;28;20199;-79
2023/10/05 10:53:56;;;;;;;3.47;1.90;;;;;;;-145.69;40.86;52016.66;5032922;28;20215;-80
2023/10/05 10:56:27;;;;;;;3.95;1.73;;;;;;;-145.69;40.09;52004.75;5032880;28;20200;-80
2023/10/05 10:59:07;;;;;;;9.82;2.17;;;;;;;-145.69;40.78;51981.00;5032887;28;20215;-79
2023/10/05 11:01:41;;;;;;;6.00;1.85;;;;;;;-145.69;40.63;51975.06;5032632;28;20287;-79
2023/10/05 11:04:23;;;;;;;6.88;2.40;;;;;;;-145.69;39.79;52004.75;5032573;28;20234;-79
2023/10/05 11:06:51;;;;;;;5.22;2.10;;;;;;;-145.69;38.83;51963.19;5032427;28;20196;-81
2023/10/05 11:09:24;;;;;;;5.70;2.00;;;;;;;-145.69;38.31;52008.72;5032580;28;20216;-81
2023/10/05 11:11:51;;;;;;;10.73;1.75;;;;;;;-145.69;38.31;51971.09;5032858;28;20204;-81
2023/10/05 11:14:21;;;;;;;4.53;1.95;;;;;;;-145.69;37.55;51951.28;5032541;28;20202;-81
2023/10/05 11:16:59;;;;;;;5.90;2.38;;;;;;;-145.69;36.93;51996.84;5032567;28;20287;-82
2023/10/05 11:19:36;;;;;;;5.93;1.88;;;;;;;-145.69;36.24;51955.25;5032838;28;20253;-81
2023/10/05 11:22:06;;;;;;;4.53;2.00;;;;;;;-145.69;36.61;51973.06;5032637;28;20204;-81
2023/10/05 11:24:34;;;;;;;4.20;2.13;;;;;;;-145.69;36.67;51923.56;5031600;28;20636;-81
2023/10/05 11:27:07;;;;;;;6.15;2.00;;;;;;;-145.69;36.75;51913.69;5031879;28;20275;-82
2023/10/05 11:29:43;;;;;;;4.80;2.25;;;;;;;-145.69;35.57;51953.28;5030509;28;20196;-81